Terminal Aerodrome Forecast
Issued by NWS

Home | Current Version | Previous Version | Text Only | Print | Product List | Glossary On
Versions: 1 2 3 4 5 6 7 8 9 10 11 12 13 14 15 16 17 18 19 20 21 22 23 24 25 26 27 28 29 30 31 32 33 34
176
FTUS41 KOKX 192101 AAB
TAFGON
TAF AMD
KGON 192101Z 1921/2018 32010KT 6SM -SHRA SCT015 OVC030
      TEMPO 1921/1923 BKN015
     FM192300 31012G18KT P6SM VCSH SCT020 BKN035
      TEMPO 1923/2001 BKN020
     FM200100 32010G18KT P6SM BKN050
     FM200700 30010KT P6SM SCT050
     FM201300 30013G25KT P6SM SCT250=

USA.gov is the U.S. government's official web portal to all federal, state and local government web resources and services.